Time;durP1;ratioP1;P1;durP2;ratioP2;P2;SDS_P1;SDS_P2;PMS_P1;PMS_P2;Temp;Humidity;BMP_temperature;BMP_pressure;BME280_temperature;BME280_humidity;BME280_pressure;Samples;Min_cycle;Max_cycle;Signal;HPM_P1;HPM_P2
2022/05/22 00:01:56;;;;;;;1.63;1.35;;;21.70;55.80;;;;;;5101154;28;20038;-38
2022/05/22 00:04:22;;;;;;;1.55;1.45;;;21.80;55.90;;;;;;5095678;28;20043;-37
2022/05/22 00:06:48;;;;;;;2.10;1.40;;;21.70;55.80;;;;;;5102018;28;20028;-37
2022/05/22 00:09:14;;;;;;;1.55;1.45;;;21.70;55.90;;;;;;5100147;28;20024;-38
2022/05/22 00:11:40;;;;;;;1.55;1.45;;;21.70;55.90;;;;;;5097173;28;20030;-37
2022/05/22 00:14:07;;;;;;;1.42;1.33;;;21.70;56.30;;;;;;5100679;28;20131;-37
2022/05/22 00:16:41;;;;;;;1.95;1.65;;;21.60;55.70;;;;;;5109147;28;20025;-38
2022/05/22 00:19:12;;;;;;;1.65;1.40;;;21.60;55.80;;;;;;5105802;28;20027;-38
2022/05/22 00:21:39;;;;;;;1.83;1.70;;;21.60;55.70;;;;;;5114550;28;20024;-38
2022/05/22 00:24:05;;;;;;;2.27;1.77;;;21.60;55.70;;;;;;5110601;28;20095;-38
2022/05/22 00:26:32;;;;;;;1.60;1.50;;;21.60;55.70;;;;;;5105846;28;20051;-38
2022/05/22 00:28:58;;;;;;;1.60;1.50;;;21.60;55.70;;;;;;5110179;28;20048;-38
2022/05/22 00:31:24;;;;;;;1.88;1.63;;;21.60;55.80;;;;;;5107489;28;20673;-38
2022/05/22 00:33:50;;;;;;;1.50;1.40;;;21.50;55.60;;;;;;5110321;28;20050;-39
2022/05/22 00:36:16;;;;;;;1.58;1.48;;;21.50;55.60;;;;;;5109501;28;20036;-38
2022/05/22 00:38:43;;;;;;;1.67;1.58;;;21.50;55.80;;;;;;5108963;28;20023;-38
2022/05/22 00:41:09;;;;;;;1.50;1.40;;;21.50;55.80;;;;;;5108763;28;20031;-38
2022/05/22 00:43:36;;;;;;;2.03;1.60;;;21.50;55.90;;;;;;5090855;28;20058;-37
2022/05/22 00:46:04;;;;;;;2.40;1.70;;;21.40;55.80;;;;;;5100860;28;20080;-37
2022/05/22 00:48:30;;;;;;;1.52;1.40;;;21.40;55.80;;;;;;5110800;28;20083;-37
2022/05/22 00:51:18;;;;;;;1.80;1.65;;;21.40;55.80;;;;;;5104051;28;20055;-38
2022/05/22 00:53:50;;;;;;;2.13;1.58;;;21.40;55.70;;;;;;5103089;28;20044;-39
2022/05/22 00:56:18;;;;;;;1.70;1.60;;;21.40;55.70;;;;;;5104490;28;20067;-38
2022/05/22 00:58:44;;;;;;;1.70;1.60;;;21.30;55.60;;;;;;5097930;28;20037;-37
2022/05/22 01:01:10;;;;;;;1.10;0.82;;;21.30;55.60;;;;;;5086127;28;20111;-38
2022/05/22 01:03:37;;;;;;;1.42;1.33;;;21.30;55.60;;;;;;5083059;28;20024;-38
2022/05/22 01:06:05;;;;;;;1.83;1.67;;;21.30;55.60;;;;;;5058036;28;20027;-39
2022/05/22 01:08:32;;;;;;;1.83;1.52;;;21.30;55.70;;;;;;5082749;28;20047;-37
2022/05/22 01:11:01;;;;;;;2.85;1.60;;;21.20;55.60;;;;;;5104299;28;20024;-37
2022/05/22 01:13:31;;;;;;;1.40;1.30;;;21.20;55.50;;;;;;5085055;28;20052;-40
2022/05/22 01:15:59;;;;;;;2.72;1.48;;;21.20;55.60;;;;;;5085768;28;20036;-38
2022/05/22 01:18:27;;;;;;;1.55;1.42;;;21.20;55.60;;;;;;5100826;28;20032;-38
2022/05/22 01:20:53;;;;;;;2.25;1.50;;;21.20;55.60;;;;;;5089947;28;20776;-41
2022/05/22 01:23:20;;;;;;;1.40;1.30;;;21.20;55.60;;;;;;5083460;28;20135;-37
2022/05/22 01:25:46;;;;;;;2.10;1.55;;;21.10;55.50;;;;;;5084083;28;20033;-38
2022/05/22 01:28:14;;;;;;;4.80;1.50;;;21.10;55.60;;;;;;5083204;28;20028;-38
2022/05/22 01:30:40;;;;;;;1.60;1.50;;;21.10;55.50;;;;;;5105434;28;20044;-37
2022/05/22 01:33:06;;;;;;;2.47;1.55;;;21.10;55.60;;;;;;5085138;28;20067;-38
2022/05/22 01:35:32;;;;;;;1.38;1.27;;;21.00;55.50;;;;;;5103165;28;20028;-39
2022/05/22 01:37:58;;;;;;;1.38;1.13;;;21.00;55.40;;;;;;5085518;28;20492;-38
2022/05/22 01:40:25;;;;;;;1.67;1.58;;;21.00;55.40;;;;;;5100689;28;20037;-40
2022/05/22 01:42:51;;;;;;;1.67;1.20;;;21.00;55.50;;;;;;5102443;28;20039;-38
2022/05/22 01:45:22;;;;;;;2.15;1.65;;;20.90;55.40;;;;;;5103041;28;20054;-37
2022/05/22 01:47:49;;;;;;;3.67;1.98;;;20.90;55.40;;;;;;5083123;28;20516;-39
2022/05/22 01:50:15;;;;;;;3.60;1.60;;;20.90;58.30;;;;;;5103432;28;20035;-38
2022/05/22 01:52:41;;;;;;;1.90;1.15;;;20.90;59.30;;;;;;5101257;28;20040;-38
2022/05/22 01:55:08;;;;;;;2.03;1.17;;;20.80;59.70;;;;;;5084368;28;20036;-40
2022/05/22 01:57:34;;;;;;;1.27;1.17;;;20.80;60.00;;;;;;5083025;28;20036;-38
2022/05/22 02:00:00;;;;;;;1.40;1.30;;;20.80;60.30;;;;;;5093681;28;20036;-38
2022/05/22 02:02:26;;;;;;;1.42;1.23;;;20.80;60.40;;;;;;5087364;28;20501;-38
2022/05/22 02:04:52;;;;;;;1.50;1.40;;;20.80;60.50;;;;;;5095287;28;20024;-41
2022/05/22 02:10:03;;;;;;;2.00;1.55;;;20.80;60.60;;;;;;5114900;28;20053;-38
2022/05/22 02:12:30;;;;;;;1.63;1.52;;;20.80;60.70;;;;;;5098703;28;20119;-39
2022/05/22 02:14:56;;;;;;;1.60;1.30;;;20.80;60.70;;;;;;5089414;28;20037;-38
2022/05/22 02:17:22;;;;;;;1.67;1.42;;;20.80;60.70;;;;;;5084483;28;20031;-38
2022/05/22 02:19:48;;;;;;;1.50;1.38;;;20.90;60.70;;;;;;5095721;28;20043;-39
2022/05/22 02:22:14;;;;;;;1.45;1.23;;;20.80;60.60;;;;;;5099254;28;20092;-38
2022/05/22 02:24:40;;;;;;;1.40;1.30;;;20.90;60.60;;;;;;5085871;28;20067;-39
2022/05/22 02:27:06;;;;;;;1.35;1.25;;;20.90;60.50;;;;;;5082638;28;20036;-38
2022/05/22 02:29:34;;;;;;;1.97;1.40;;;20.90;60.50;;;;;;5101206;28;20068;-39
2022/05/22 02:32:20;;;;;;;1.33;1.23;;;20.90;60.40;;;;;;5039114;28;20498;-38
2022/05/22 02:34:46;;;;;;;1.42;1.30;;;20.90;60.30;;;;;;5039165;28;20046;-38
2022/05/22 02:37:12;;;;;;;1.30;1.20;;;20.90;60.20;;;;;;5039593;28;20034;-39
2022/05/22 02:39:38;;;;;;;1.40;1.30;;;20.90;60.10;;;;;;5027740;28;20026;-40
2022/05/22 02:42:05;;;;;;;1.20;1.10;;;20.90;60.00;;;;;;5038014;28;20034;-38
2022/05/22 02:44:32;;;;;;;1.40;1.30;;;21.00;60.00;;;;;;5038649;28;20037;-37
2022/05/22 02:46:58;;;;;;;1.20;1.00;;;21.00;59.90;;;;;;5043660;28;20060;-38
2022/05/22 02:49:24;;;;;;;1.63;1.38;;;21.00;59.90;;;;;;5048454;28;20045;-38
2022/05/22 02:51:50;;;;;;;1.60;1.50;;;21.00;59.80;;;;;;5039590;28;20029;-38
2022/05/22 02:54:16;;;;;;;1.50;1.40;;;21.00;59.70;;;;;;5034903;28;20109;-38
2022/05/22 02:56:42;;;;;;;1.20;1.10;;;21.00;59.60;;;;;;5038196;28;20041;-39
2022/05/22 02:59:08;;;;;;;1.35;1.20;;;21.10;59.60;;;;;;5039328;28;20033;-38
2022/05/22 03:01:34;;;;;;;1.45;1.20;;;21.10;59.50;;;;;;5039214;28;20029;-38
2022/05/22 03:04:00;;;;;;;1.40;1.30;;;21.10;59.40;;;;;;5038803;28;20076;-38
2022/05/22 03:06:48;;;;;;;1.10;1.00;;;21.10;59.30;;;;;;5038322;28;20025;-38
2022/05/22 03:09:14;;;;;;;1.40;1.30;;;21.10;59.30;;;;;;5055069;28;20043;-38
2022/05/22 03:11:40;;;;;;;;;;;21.20;59.20;;;;;;5080359;28;20080;-38
2022/05/22 03:14:07;;;;;;;1.15;1.05;;;21.20;59.10;;;;;;5100205;28;19916;-40
2022/05/22 03:16:33;;;;;;;1.20;1.10;;;21.20;59.10;;;;;;5083953;28;20096;-38
2022/05/22 03:18:59;;;;;;;1.30;1.20;;;21.20;58.90;;;;;;5096472;28;20400;-38
2022/05/22 03:21:27;;;;;;;1.10;1.00;;;21.20;58.90;;;;;;5101176;28;20031;-38
2022/05/22 03:23:53;;;;;;;1.70;1.17;;;21.20;58.80;;;;;;5091120;28;20036;-42
2022/05/22 03:26:19;;;;;;;3.90;1.25;;;21.20;58.70;;;;;;5090466;28;20038;-43
2022/05/22 03:28:46;;;;;;;3.92;1.20;;;21.30;58.80;;;;;;5101198;28;20050;-40
2022/05/22 03:31:12;;;;;;;2.77;1.30;;;21.30;58.80;;;;;;5087579;28;20687;-41
2022/05/22 03:33:38;;;;;;;4.82;1.10;;;21.30;58.70;;;;;;5096531;28;20037;-48
2022/05/22 03:36:05;;;;;;;3.30;1.30;;;21.30;58.60;;;;;;5095935;28;20032;-41
2022/05/22 03:38:31;;;;;;;6.93;1.20;;;21.30;58.50;;;;;;5096256;28;20691;-43
2022/05/22 03:40:58;;;;;;;2.08;1.23;;;21.40;58.70;;;;;;5091023;28;20028;-41
2022/05/22 03:43:24;;;;;;;1.95;1.10;;;21.40;59.00;;;;;;5097527;28;20035;-43
2022/05/22 03:45:51;;;;;;;1.85;1.27;;;21.40;59.20;;;;;;5094230;28;20028;-42
2022/05/22 03:48:17;;;;;;;2.95;1.50;;;21.40;59.20;;;;;;5074091;28;20062;-43
2022/05/22 03:50:43;;;;;;;2.30;1.40;;;21.40;59.10;;;;;;5104114;28;20091;-42
2022/05/22 03:53:09;;;;;;;2.28;1.63;;;21.50;59.00;;;;;;5100467;28;20538;-43
2022/05/22 03:57:29;;;;;;;5.30;2.20;;;21.50;58.70;;;;;;5116531;27;20408;-42
2022/05/22 03:59:55;;;;;;;10.52;2.55;;;21.50;60.10;;;;;;5113765;28;20091;-40
2022/05/22 04:02:21;;;;;;;7.32;2.40;;;21.60;60.70;;;;;;5119217;28;20069;-40
2022/05/22 04:04:47;;;;;;;7.30;2.13;;;21.60;60.90;;;;;;5116023;28;20041;-39
2022/05/22 04:07:15;;;;;;;7.53;2.10;;;21.60;60.80;;;;;;5115932;28;20024;-39
2022/05/22 04:09:41;;;;;;;4.90;2.05;;;21.60;60.90;;;;;;5118616;28;20036;-40
2022/05/22 04:12:09;;;;;;;4.43;1.90;;;21.70;60.90;;;;;;5118508;28;20039;-39
2022/05/22 04:14:35;;;;;;;4.05;1.70;;;21.70;60.90;;;;;;5118986;28;20300;-39
2022/05/22 04:17:01;;;;;;;4.38;1.52;;;21.70;60.70;;;;;;5117557;28;20064;-40
2022/05/22 04:19:27;;;;;;;3.78;1.58;;;21.70;60.60;;;;;;5113654;28;20114;-43
2022/05/22 04:21:53;;;;;;;3.67;1.65;;;21.70;60.60;;;;;;5119225;28;20024;-40
2022/05/22 04:27:05;;;;;;;6.47;1.73;;;21.80;60.40;;;;;;5117064;28;20037;-40
2022/05/22 04:29:32;;;;;;;3.80;1.50;;;21.80;60.30;;;;;;5114624;28;20024;-39
2022/05/22 04:31:58;;;;;;;5.82;1.80;;;21.90;60.40;;;;;;5117854;28;20027;-40
2022/05/22 04:34:24;;;;;;;3.33;2.00;;;21.90;60.30;;;;;;5115323;28;20721;-40
2022/05/22 04:36:50;;;;;;;3.65;1.60;;;21.90;60.20;;;;;;5117347;28;20055;-40
2022/05/22 04:39:16;;;;;;;3.80;1.88;;;21.90;60.10;;;;;;5118118;28;20092;-44
2022/05/22 04:41:42;;;;;;;2.40;1.63;;;22.00;60.00;;;;;;5117646;28;20032;-40
2022/05/22 04:44:08;;;;;;;4.25;1.88;;;22.00;59.90;;;;;;5120760;28;20030;-40
2022/05/22 04:46:34;;;;;;;3.53;1.75;;;22.00;59.80;;;;;;5116266;28;20073;-40
2022/05/22 04:49:00;;;;;;;2.88;1.75;;;22.00;59.80;;;;;;5120695;28;20095;-39
2022/05/22 04:51:26;;;;;;;3.60;1.80;;;22.00;59.70;;;;;;5115915;28;20023;-41
2022/05/22 04:53:53;;;;;;;5.10;1.70;;;22.10;59.70;;;;;;5114221;28;20023;-40
2022/05/22 04:56:20;;;;;;;3.13;1.77;;;22.10;59.60;;;;;;5117090;28;20532;-40
2022/05/22 04:58:46;;;;;;;4.55;1.73;;;22.10;59.40;;;;;;5118804;28;20027;-40
2022/05/22 05:01:13;;;;;;;5.03;1.85;;;22.10;59.30;;;;;;5116490;28;20036;-41
2022/05/22 05:03:39;;;;;;;2.60;1.58;;;22.10;59.20;;;;;;5115458;28;20047;-40
2022/05/22 05:06:05;;;;;;;3.13;1.83;;;22.10;59.10;;;;;;5115442;28;20032;-41
2022/05/22 05:08:32;;;;;;;4.15;2.08;;;22.10;59.00;;;;;;5101608;28;20560;-41
2022/05/22 05:10:58;;;;;;;2.45;1.50;;;22.20;59.00;;;;;;5099175;28;20028;-40
2022/05/22 05:13:25;;;;;;;3.00;1.88;;;22.20;58.90;;;;;;5104131;28;20026;-41
2022/05/22 05:16:04;;;;;;;3.13;1.63;;;22.20;58.80;;;;;;5104200;28;20044;-41
2022/05/22 05:18:31;;;;;;;4.47;1.40;;;22.20;58.80;;;;;;5102960;28;20564;-40
2022/05/22 05:21:02;;;;;;;1.95;1.58;;;22.20;58.70;;;;;;5104315;28;20474;-41
2022/05/22 05:23:28;;;;;;;2.08;1.60;;;22.20;58.60;;;;;;5098376;28;20079;-40
2022/05/22 05:25:54;;;;;;;2.70;1.48;;;22.20;58.50;;;;;;5104545;28;20052;-40
2022/05/22 05:28:21;;;;;;;3.38;1.70;;;22.20;58.50;;;;;;5103767;28;20047;-41
2022/05/22 05:30:47;;;;;;;2.60;1.70;;;22.30;58.50;;;;;;5101470;28;20062;-41
2022/05/22 05:33:13;;;;;;;2.95;1.77;;;22.30;58.40;;;;;;5106660;28;20477;-40
2022/05/22 05:35:40;;;;;;;2.70;1.50;;;22.30;58.30;;;;;;5118029;28;20028;-40
2022/05/22 05:38:06;;;;;;;3.83;1.60;;;22.20;58.20;;;;;;5093445;28;20032;-40
2022/05/22 05:40:32;;;;;;;2.20;1.55;;;22.30;58.30;;;;;;5097475;28;20047;-40
2022/05/22 05:42:58;;;;;;;3.00;1.48;;;22.30;58.20;;;;;;5092666;28;20028;-40
2022/05/22 05:45:24;;;;;;;2.53;1.20;;;22.30;58.20;;;;;;5104030;28;20555;-40
2022/05/22 05:47:50;;;;;;;2.08;1.63;;;22.30;58.10;;;;;;5107838;28;20054;-40
2022/05/22 05:50:22;;;;;;;3.33;1.70;;;22.30;58.10;;;;;;5108974;28;20065;-40
2022/05/22 05:52:52;;;;;;;2.58;1.63;;;22.30;58.10;;;;;;5101567;28;20051;-40
2022/05/22 05:55:18;;;;;;;1.90;1.38;;;22.30;58.00;;;;;;5107731;28;20055;-41
2022/05/22 05:57:45;;;;;;;2.28;1.55;;;22.30;58.00;;;;;;5101990;28;20056;-40
2022/05/22 06:00:13;;;;;;;2.67;1.70;;;22.30;58.00;;;;;;5100812;28;20087;-40
2022/05/22 06:02:39;;;;;;;2.28;1.63;;;22.30;57.90;;;;;;5107923;28;20280;-40
2022/05/22 06:05:05;;;;;;;2.58;1.63;;;22.40;57.90;;;;;;5087053;28;20039;-40
2022/05/22 06:07:31;;;;;;;2.80;1.40;;;22.30;57.90;;;;;;5103161;28;20438;-40
2022/05/22 06:10:00;;;;;;;2.80;1.50;;;22.40;57.90;;;;;;5105838;28;20040;-40
2022/05/22 06:12:26;;;;;;;2.58;1.63;;;22.40;57.80;;;;;;5104481;28;20035;-40
2022/05/22 06:14:52;;;;;;;3.50;1.73;;;22.40;57.80;;;;;;5102852;28;20024;-40
2022/05/22 06:17:18;;;;;;;2.53;1.45;;;22.40;57.80;;;;;;5102690;28;20070;-40
2022/05/22 06:20:00;;;;;;;3.25;1.60;;;22.40;57.70;;;;;;5093049;28;20096;-40
2022/05/22 06:22:28;;;;;;;2.55;1.60;;;22.40;57.70;;;;;;5108219;28;20037;-39
2022/05/22 06:24:55;;;;;;;2.20;1.50;;;22.40;57.60;;;;;;5102633;28;20111;-40
2022/05/22 06:27:21;;;;;;;2.13;1.47;;;22.40;57.60;;;;;;5101864;28;20889;-40
2022/05/22 06:29:48;;;;;;;3.20;1.57;;;22.40;57.60;;;;;;5096250;28;20087;-40
2022/05/22 06:32:15;;;;;;;2.92;1.60;;;22.40;57.60;;;;;;5109682;28;20040;-40
2022/05/22 06:34:41;;;;;;;;;;;22.40;57.50;;;;;;5098591;28;20039;-41
2022/05/22 06:37:09;;;;;;;1.60;1.30;;;22.40;57.60;;;;;;5101973;28;20369;-40
2022/05/22 06:39:50;;;;;;;2.90;1.70;;;22.40;57.50;;;;;;5103123;28;20031;-40
2022/05/22 06:42:38;;;;;;;2.47;1.40;;;22.40;57.50;;;;;;5100350;28;20096;-40
2022/05/22 06:45:13;;;;;;;2.00;1.42;;;22.40;57.40;;;;;;5102454;28;20028;-40
2022/05/22 06:47:39;;;;;;;2.92;1.63;;;22.40;57.40;;;;;;5088598;28;20162;-40
2022/05/22 06:50:08;;;;;;;1.52;1.42;;;22.40;58.00;;;;;;5100193;28;20101;-42
2022/05/22 06:52:35;;;;;;;2.35;1.30;;;22.40;57.40;;;;;;5092188;28;20039;-39
2022/05/22 06:55:01;;;;;;;2.30;1.73;;;22.40;57.40;;;;;;5123328;28;20027;-47
2022/05/22 06:57:28;;;;;;;2.75;1.58;;;22.40;57.40;;;;;;5122628;28;20036;-38
2022/05/22 06:59:55;;;;;;;1.95;1.58;;;22.40;57.40;;;;;;5107317;28;20051;-38
2022/05/22 07:02:22;;;;;;;1.88;1.55;;;22.40;57.40;;;;;;5102357;28;20047;-39
2022/05/22 07:04:48;;;;;;;3.00;1.70;;;22.40;57.40;;;;;;5091026;28;20028;-38
2022/05/22 07:07:14;;;;;;;2.50;1.45;;;22.40;57.40;;;;;;5097795;28;20031;-38
2022/05/22 07:09:40;;;;;;;1.88;1.38;;;22.40;57.40;;;;;;5105471;28;20027;-38
2022/05/22 07:12:08;;;;;;;2.10;1.40;;;22.40;57.40;;;;;;5107366;28;20051;-39
2022/05/22 07:14:34;;;;;;;1.98;1.65;;;22.40;57.40;;;;;;5102778;28;20054;-38
2022/05/22 07:17:02;;;;;;;1.88;1.45;;;22.40;57.40;;;;;;5102121;28;20492;-37
2022/05/22 07:19:28;;;;;;;3.97;1.40;;;22.40;57.40;;;;;;5092888;28;20039;-39
2022/05/22 07:22:14;;;;;;;2.65;1.40;;;22.40;57.40;;;;;;5018697;28;20041;-38
2022/05/22 07:24:41;;;;;;;1.75;1.50;;;22.40;57.30;;;;;;5020077;28;20041;-38
2022/05/22 07:27:07;;;;;;;2.38;1.70;;;22.40;57.30;;;;;;5020015;28;20042;-38
2022/05/22 07:29:33;;;;;;;2.08;1.67;;;22.40;57.30;;;;;;5019596;28;20061;-38
2022/05/22 07:31:59;;;;;;;1.80;1.55;;;22.40;57.30;;;;;;5019282;28;20056;-39
2022/05/22 07:34:26;;;;;;;1.90;1.67;;;22.40;57.40;;;;;;5019041;28;20105;-38
2022/05/22 07:37:03;;;;;;;3.57;1.80;;;22.40;57.40;;;;;;5019032;28;20052;-38
2022/05/22 07:39:30;;;;;;;2.03;1.60;;;22.40;57.40;;;;;;5019679;28;20049;-38
2022/05/22 07:41:56;;;;;;;2.88;1.85;;;22.40;57.40;;;;;;5014350;28;20121;-38
2022/05/22 07:44:22;;;;;;;2.08;1.75;;;22.40;57.50;;;;;;5012300;28;20048;-38
2022/05/22 07:46:48;;;;;;;2.00;1.42;;;22.40;57.40;;;;;;5034717;28;20048;-38
2022/05/22 07:52:07;;;;;;;1.90;1.60;;;22.40;57.50;;;;;;5013332;28;20045;-38
2022/05/22 07:54:37;;;;;;;1.83;1.65;;;22.40;57.50;;;;;;5013852;28;20030;-38
2022/05/22 07:57:03;;;;;;;2.45;1.52;;;22.40;57.40;;;;;;5013565;28;20062;-39
2022/05/22 07:59:32;;;;;;;2.10;1.40;;;22.40;57.40;;;;;;5063639;28;20063;-37
2022/05/22 08:01:58;;;;;;;2.05;1.60;;;22.40;57.40;;;;;;5105667;28;20036;-38
2022/05/22 08:04:25;;;;;;;3.05;1.67;;;22.40;57.30;;;;;;5101645;28;20053;-38
2022/05/22 08:06:51;;;;;;;1.33;1.20;;;22.40;57.30;;;;;;5101602;28;20031;-38
2022/05/22 08:09:17;;;;;;;2.83;1.70;;;22.40;57.30;;;;;;5100885;28;20036;-38
2022/05/22 08:11:43;;;;;;;2.28;1.75;;;22.40;57.20;;;;;;5105516;28;20035;-39
2022/05/22 08:14:09;;;;;;;2.17;1.70;;;22.40;57.20;;;;;;5098646;28;20032;-38
2022/05/22 08:16:35;;;;;;;2.17;1.50;;;22.40;57.30;;;;;;5105327;28;20066;-39
2022/05/22 08:19:01;;;;;;;1.98;1.60;;;22.40;57.20;;;;;;5089759;28;20020;-39
2022/05/22 08:21:27;;;;;;;2.10;1.55;;;22.40;57.20;;;;;;5102008;28;20032;-38
2022/05/22 08:23:54;;;;;;;1.60;1.50;;;22.40;57.30;;;;;;5101549;28;20027;-38
2022/05/22 08:26:20;;;;;;;2.58;1.90;;;22.40;57.30;;;;;;5101343;28;20032;-38
2022/05/22 08:28:46;;;;;;;2.22;1.60;;;22.40;57.40;;;;;;5096742;28;20035;-38
2022/05/22 08:31:12;;;;;;;2.35;1.55;;;22.40;57.30;;;;;;5103550;28;20709;-38
2022/05/22 08:33:38;;;;;;;1.63;1.50;;;22.40;57.30;;;;;;5099239;28;20028;-38
2022/05/22 08:36:04;;;;;;;1.90;1.70;;;22.40;57.30;;;;;;5081388;28;20032;-38
2022/05/22 08:38:30;;;;;;;2.83;1.88;;;22.40;57.20;;;;;;5081671;28;20092;-39
2022/05/22 08:41:15;;;;;;;1.85;1.73;;;22.40;57.30;;;;;;5084239;28;20516;-38
2022/05/22 08:44:11;;;;;;;1.70;1.60;;;22.40;57.30;;;;;;5083451;28;20063;-38
2022/05/22 08:46:50;;;;;;;1.90;1.67;;;22.30;57.40;;;;;;5067913;28;20109;-38
2022/05/22 08:49:16;;;;;;;2.58;1.80;;;22.30;57.50;;;;;;5090766;28;20021;-38
2022/05/22 08:51:45;;;;;;;4.32;1.80;;;22.30;57.50;;;;;;5092531;28;20051;-38
2022/05/22 08:54:18;;;;;;;1.77;1.65;;;22.30;57.70;;;;;;5084195;28;20040;-38
2022/05/22 08:59:31;;;;;;;2.65;1.70;;;22.30;57.60;;;;;;5107492;28;20053;-39
2022/05/22 09:02:22;;;;;;;2.28;1.90;;;22.30;57.70;;;;;;5093675;28;20057;-40
2022/05/22 09:05:13;;;;;;;1.88;1.60;;;22.30;57.90;;;;;;5087763;28;20118;-40
2022/05/22 09:07:45;;;;;;;2.42;2.00;;;22.30;57.80;;;;;;5095929;28;20032;-40
2022/05/22 09:10:25;;;;;;;1.88;1.55;;;22.30;57.70;;;;;;5107972;28;20016;-40
2022/05/22 09:13:16;;;;;;;2.17;1.60;;;22.30;57.50;;;;;;5087484;28;20031;-39
2022/05/22 09:15:49;;;;;;;2.13;1.70;;;22.30;57.70;;;;;;5108070;28;20122;-39
2022/05/22 09:18:37;;;;;;;2.47;1.77;;;22.30;57.70;;;;;;5105856;28;20035;-39
2022/05/22 09:21:45;;;;;;;1.08;0.98;;;22.30;57.50;;;;;;5112998;28;20032;-39
2022/05/22 09:24:42;;;;;;;3.63;1.65;;;22.30;57.60;;;;;;5009427;28;20074;-42
2022/05/22 09:27:10;;;;;;;2.50;1.90;;;22.20;57.60;;;;;;5021573;28;20080;-40
2022/05/22 09:30:05;;;;;;;1.88;1.67;;;22.20;57.50;;;;;;5004461;28;20042;-40
2022/05/22 09:32:52;;;;;;;2.17;1.88;;;22.20;57.60;;;;;;5007158;28;20084;-39
2022/05/22 09:35:37;;;;;;;1.63;1.52;;;22.20;57.50;;;;;;5017741;28;20030;-38
2022/05/22 09:38:16;;;;;;;1.70;1.45;;;22.20;57.50;;;;;;5028932;28;20049;-39
2022/05/22 09:40:46;;;;;;;1.92;1.55;;;22.20;57.40;;;;;;5005798;28;20519;-38
2022/05/22 09:43:12;;;;;;;2.53;1.63;;;22.20;57.40;;;;;;5015451;28;20042;-40
2022/05/22 09:46:04;;;;;;;2.33;1.58;;;22.20;57.30;;;;;;5017555;28;20045;-40
2022/05/22 09:48:49;;;;;;;2.30;1.80;;;22.20;57.40;;;;;;5028341;28;20503;-39
2022/05/22 09:51:20;;;;;;;1.75;1.65;;;22.20;57.40;;;;;;5009799;28;20045;-39
2022/05/22 09:53:46;;;;;;;1.60;1.50;;;22.20;57.50;;;;;;5007118;28;20197;-40
2022/05/22 09:56:21;;;;;;;2.53;1.70;;;22.20;57.40;;;;;;5021498;28;20056;-39
2022/05/22 09:58:57;;;;;;;2.05;1.67;;;22.20;57.50;;;;;;5088322;28;20059;-40
2022/05/22 10:01:34;;;;;;;2.20;1.70;;;22.20;57.40;;;;;;5106395;28;20075;-40
2022/05/22 10:04:37;;;;;;;2.30;1.88;;;22.10;57.40;;;;;;5080499;28;20061;-39
2022/05/22 10:07:31;;;;;;;3.78;1.80;;;22.20;57.40;;;;;;5099665;28;20040;-40
2022/05/22 10:10:03;;;;;;;2.55;2.00;;;22.10;57.40;;;;;;5102921;28;20122;-39
2022/05/22 10:12:55;;;;;;;3.63;1.95;;;22.10;57.40;;;;;;5086546;28;20753;-39
2022/05/22 10:15:46;;;;;;;2.08;1.65;;;22.10;57.40;;;;;;5100446;28;20134;-39
2022/05/22 10:18:30;;;;;;;2.13;1.70;;;22.10;57.50;;;;;;5084327;28;20050;-40
2022/05/22 10:20:56;;;;;;;2.28;1.67;;;22.10;57.50;;;;;;5103585;28;20031;-41
2022/05/22 10:23:40;;;;;;;1.60;1.50;;;22.10;57.40;;;;;;5118830;28;20030;-39
2022/05/22 10:26:35;;;;;;;2.58;1.77;;;22.10;57.50;;;;;;5089531;28;20098;-40
2022/05/22 10:29:37;;;;;;;1.90;1.63;;;22.10;57.50;;;;;;5088580;28;20100;-39
2022/05/22 10:32:05;;;;;;;1.90;1.60;;;22.10;57.50;;;;;;5091704;28;20028;-40
2022/05/22 10:34:50;;;;;;;2.08;1.77;;;22.10;57.50;;;;;;5096301;28;20064;-38
2022/05/22 10:37:45;;;;;;;2.25;1.67;;;22.10;57.50;;;;;;5099058;28;20036;-39
2022/05/22 10:40:17;;;;;;;2.00;1.73;;;22.10;57.50;;;;;;5076001;28;20067;-39
2022/05/22 10:42:49;;;;;;;2.15;1.70;;;22.10;57.50;;;;;;5102191;28;20024;-40
2022/05/22 10:45:25;;;;;;;2.17;1.83;;;22.10;57.50;;;;;;5065457;28;20028;-37
2022/05/22 10:47:52;;;;;;;2.05;1.73;;;22.10;57.50;;;;;;5074780;28;20028;-39
2022/05/22 10:50:23;;;;;;;;;;;22.00;57.50;;;;;;5099726;28;20039;-39
2022/05/22 10:52:49;;;;;;;1.88;1.60;;;22.00;57.60;;;;;;5065153;28;19936;-39
2022/05/22 10:55:37;;;;;;;2.60;1.63;;;22.00;57.50;;;;;;5082651;28;20042;-39
2022/05/22 10:58:16;;;;;;;1.60;1.40;;;22.00;57.60;;;;;;5091693;28;20381;-39
2022/05/22 11:00:55;;;;;;;3.20;1.80;;;22.00;57.60;;;;;;5069675;28;20579;-40
2022/05/22 11:03:28;;;;;;;1.83;1.60;;;22.00;57.60;;;;;;5082730;28;20056;-39
2022/05/22 11:05:55;;;;;;;1.92;1.60;;;22.00;57.60;;;;;;5075395;28;20028;-39
2022/05/22 11:08:29;;;;;;;1.85;1.60;;;22.00;57.60;;;;;;5102878;28;20083;-38
2022/05/22 11:10:57;;;;;;;2.15;1.70;;;22.00;57.60;;;;;;5103061;28;20130;-39
2022/05/22 11:13:25;;;;;;;2.15;1.70;;;22.00;57.60;;;;;;5087268;28;20451;-39
2022/05/22 11:15:51;;;;;;;2.15;1.85;;;22.00;57.60;;;;;;5094562;28;20414;-39
2022/05/22 11:18:27;;;;;;;2.30;1.70;;;22.00;57.60;;;;;;5112832;28;20054;-39
2022/05/22 11:21:05;;;;;;;2.67;1.85;;;22.00;57.60;;;;;;5102537;28;20036;-39
2022/05/22 11:23:48;;;;;;;2.42;1.80;;;22.00;57.60;;;;;;5115446;28;20027;-39
2022/05/22 11:26:42;;;;;;;1.70;1.60;;;22.00;57.60;;;;;;5102005;28;20040;-40
2022/05/22 11:29:45;;;;;;;1.95;1.60;;;22.00;57.60;;;;;;5067905;28;20489;-39
2022/05/22 11:32:40;;;;;;;2.35;1.60;;;22.00;57.60;;;;;;5082184;28;20055;-40
2022/05/22 11:35:15;;;;;;;1.88;1.73;;;22.00;57.60;;;;;;5093527;28;20024;-40
2022/05/22 11:38:10;;;;;;;1.85;1.60;;;22.00;57.60;;;;;;5083435;28;20050;-39
2022/05/22 11:41:03;;;;;;;2.00;1.60;;;21.90;57.60;;;;;;5096367;28;20077;-40
2022/05/22 11:43:55;;;;;;;1.42;1.33;;;21.90;57.60;;;;;;5062028;28;20043;-39
2022/05/22 11:46:32;;;;;;;2.53;1.60;;;21.90;57.60;;;;;;5086969;28;20090;-39
2022/05/22 11:49:23;;;;;;;2.53;1.70;;;21.90;57.70;;;;;;5081969;28;20032;-40
2022/05/22 11:55:26;;;;;;;1.70;1.58;;;21.90;57.80;;;;;;5092644;28;20046;-40
2022/05/22 11:58:10;;;;;;;1.77;1.52;;;21.90;57.80;;;;;;5101278;28;20129;-40
2022/05/22 12:00:57;;;;;;;1.77;1.67;;;21.90;57.80;;;;;;5091252;28;20027;-40
2022/05/22 12:03:46;;;;;;;2.05;1.40;;;21.90;57.80;;;;;;5084640;28;20043;-40
2022/05/22 12:06:42;;;;;;;2.75;1.60;;;21.90;58.00;;;;;;5091067;28;20035;-40
2022/05/22 12:09:26;;;;;;;1.60;1.50;;;21.90;58.00;;;;;;5039659;28;20063;-41
2022/05/22 12:12:10;;;;;;;1.73;1.63;;;21.90;58.00;;;;;;5093501;28;20027;-40
2022/05/22 12:14:56;;;;;;;2.25;1.58;;;21.90;58.00;;;;;;5097447;28;20029;-39
2022/05/22 12:17:26;;;;;;;2.65;2.10;;;21.90;58.00;;;;;;5091403;28;20043;-40
2022/05/22 12:20:15;;;;;;;1.80;1.70;;;21.90;58.00;;;;;;5120336;28;20024;-39
2022/05/22 12:23:08;;;;;;;1.73;1.60;;;21.90;58.00;;;;;;5067886;28;20036;-39
2022/05/22 12:25:46;;;;;;;1.60;1.50;;;21.90;58.00;;;;;;5097394;28;20080;-39
2022/05/22 12:28:41;;;;;;;2.83;1.70;;;21.90;58.00;;;;;;5084567;28;20025;-39
2022/05/22 12:31:36;;;;;;;1.83;1.65;;;21.90;58.00;;;;;;5065767;28;20033;-40
2022/05/22 12:34:06;;;;;;;1.70;1.58;;;21.90;58.00;;;;;;5091948;28;20123;-40
2022/05/22 12:36:32;;;;;;;2.30;1.63;;;21.90;58.00;;;;;;5067032;28;20043;-40
2022/05/22 12:39:09;;;;;;;2.05;1.85;;;21.90;58.00;;;;;;5102128;28;20024;-39
2022/05/22 12:41:55;;;;;;;1.60;1.48;;;21.90;58.10;;;;;;5092135;28;20057;-39
2022/05/22 12:44:22;;;;;;;1.95;1.60;;;21.90;58.10;;;;;;5075713;28;20037;-39
2022/05/22 12:46:50;;;;;;;2.30;1.75;;;21.90;58.20;;;;;;5106908;28;20508;-39
2022/05/22 12:49:20;;;;;;;1.73;1.60;;;21.90;58.20;;;;;;5109888;28;20079;-39
2022/05/22 12:51:57;;;;;;;1.58;1.48;;;21.90;58.30;;;;;;5106526;28;20106;-39
2022/05/22 12:57:16;;;;;;;1.77;1.52;;;21.90;58.40;;;;;;5083971;28;20063;-39
2022/05/22 12:59:57;;;;;;;2.78;1.50;;;21.90;58.40;;;;;;5095407;28;20028;-38
2022/05/22 13:02:44;;;;;;;2.22;1.50;;;21.90;58.50;;;;;;5096970;28;20409;-40
2022/05/22 13:05:17;;;;;;;3.00;1.63;;;21.90;58.60;;;;;;5101392;28;20084;-39
2022/05/22 13:07:43;;;;;;;2.05;1.60;;;21.90;58.60;;;;;;5119785;27;20036;-39
2022/05/22 13:10:42;;;;;;;1.58;1.40;;;21.90;58.60;;;;;;5108207;28;20031;-39
2022/05/22 13:13:09;;;;;;;1.92;1.63;;;21.90;59.30;;;;;;5100505;28;20043;-39
2022/05/22 13:15:35;;;;;;;2.25;1.70;;;21.90;58.70;;;;;;5084179;28;20054;-40
2022/05/22 13:18:07;;;;;;;2.15;1.50;;;21.90;58.80;;;;;;5101560;28;20039;-39
2022/05/22 13:20:36;;;;;;;1.98;1.77;;;21.90;58.90;;;;;;5104497;28;20049;-39
2022/05/22 13:23:09;;;;;;;1.58;1.48;;;21.90;58.90;;;;;;5097315;28;20039;-39
2022/05/22 13:25:44;;;;;;;1.98;1.77;;;21.90;59.00;;;;;;5087491;28;20028;-40
2022/05/22 13:28:38;;;;;;;1.60;1.50;;;21.90;59.10;;;;;;5101565;28;20035;-39
2022/05/22 13:31:06;;;;;;;1.75;1.50;;;21.90;59.20;;;;;;5105785;28;20043;-40